Time;durP1;ratioP1;P1;durP2;ratioP2;P2;SDS_P1;SDS_P2;PMS_P1;PMS_P2;Temp;Humidity;BMP_temperature;BMP_pressure;BME280_temperature;BME280_humidity;BME280_pressure;Samples;Min_cycle;Max_cycle;Signal;HPM_P1;HPM_P2
2022/12/27 00:00:30;;;;;;;2.05;0.90;;;;;;;4.70;100.00;96513.16;1013842;29;20110;-69
2022/12/27 00:01:00;;;;;;;2.50;0.93;;;;;;;4.67;100.00;96510.97;1014507;29;20494;-69
2022/12/27 00:01:31;;;;;;;1.52;0.70;;;;;;;4.65;100.00;96506.97;1017207;29;20042;-69
2022/12/27 00:02:01;;;;;;;1.40;0.80;;;;;;;4.62;100.00;96507.38;1013791;29;20071;-69
2022/12/27 00:02:32;;;;;;;3.05;1.02;;;;;;;4.62;100.00;96505.56;1014149;29;20123;-69
2022/12/27 00:03:03;;;;;;;1.58;0.70;;;;;;;4.64;100.00;96513.19;1013827;29;20514;-70
2022/12/27 00:03:33;;;;;;;1.58;0.80;;;;;;;4.65;100.00;96514.75;1006942;29;20515;-69
2022/12/27 00:04:04;;;;;;;1.98;0.65;;;;;;;4.58;100.00;96506.19;1010287;29;20044;-69
2022/12/27 00:04:34;;;;;;;5.10;0.65;;;;;;;4.60;100.00;96525.78;1014125;29;20040;-70
2022/12/27 00:05:05;;;;;;;3.60;0.90;;;;;;;4.59;100.00;96525.97;1017703;29;20024;-69
2022/12/27 00:05:36;;;;;;;1.60;0.80;;;;;;;4.56;100.00;96523.78;1013200;29;20104;-68
2022/12/27 00:06:17;;;;;;;2.40;0.65;;;;;;;4.57;100.00;96510.59;1013656;29;20384;-68
2022/12/27 00:06:48;;;;;;;2.20;0.88;;;;;;;4.55;100.00;96519.59;1019389;29;20035;-70
2022/12/27 00:07:18;;;;;;;0.63;0.63;;;;;;;4.54;100.00;96516.19;1013724;29;20348;-68
2022/12/27 00:07:49;;;;;;;3.05;0.70;;;;;;;4.51;100.00;96516.59;1013907;29;20060;-69
2022/12/27 00:08:19;;;;;;;2.90;0.80;;;;;;;4.56;100.00;96514.22;1018018;29;20091;-69
2022/12/27 00:08:50;;;;;;;3.80;0.82;;;;;;;4.54;100.00;96518.00;1018315;29;20099;-69
2022/12/27 00:09:20;;;;;;;2.05;1.05;;;;;;;4.52;100.00;96517.41;1017860;29;20027;-69
2022/12/27 00:09:52;;;;;;;2.20;0.90;;;;;;;4.50;100.00;96502.03;1013294;29;20075;-68
2022/12/27 00:10:22;;;;;;;2.22;0.90;;;;;;;4.44;100.00;96506.22;1013981;29;20036;-69
2022/12/27 00:10:53;;;;;;;2.45;0.60;;;;;;;4.52;100.00;96517.41;1005997;29;20274;-69
2022/12/27 00:11:25;;;;;;;0.85;0.80;;;;;;;4.48;100.00;96507.41;1006562;29;20040;-69
2022/12/27 00:11:55;;;;;;;0.75;0.60;;;;;;;4.46;100.00;96514.63;1006698;29;20480;-70
2022/12/27 00:12:26;;;;;;;0.77;0.50;;;;;;;4.52;100.00;96512.22;1009976;29;20284;-70
2022/12/27 00:12:56;;;;;;;2.78;0.88;;;;;;;4.51;100.00;96510.63;1009440;29;20067;-69
2022/12/27 00:13:27;;;;;;;1.88;0.90;;;;;;;4.45;100.00;96509.63;1012030;29;20047;-66
2022/12/27 00:13:58;;;;;;;2.70;0.88;;;;;;;4.47;100.00;96524.03;1013709;29;20039;-69
2022/12/27 00:14:29;;;;;;;3.60;0.60;;;;;;;4.45;100.00;96518.22;1015938;29;20633;-69
2022/12/27 00:14:59;;;;;;;4.03;1.25;;;;;;;4.41;100.00;96509.25;1016470;29;20287;-68
2022/12/27 00:15:32;;;;;;;5.95;0.80;;;;;;;4.45;100.00;96514.81;1014576;29;20036;-67
2022/12/27 00:16:04;;;;;;;2.17;0.70;;;;;;;4.44;100.00;96521.81;1016867;29;20041;-69
2022/12/27 00:16:35;;;;;;;3.20;0.80;;;;;;;4.39;100.00;96511.25;1017435;29;20303;-69
2022/12/27 00:17:05;;;;;;;2.35;0.93;;;;;;;4.44;100.00;96521.03;1010162;29;20271;-70
2022/12/27 00:17:36;;;;;;;2.13;1.00;;;;;;;4.43;100.00;96520.25;1011781;29;20608;-69
2022/12/27 00:18:06;;;;;;;3.42;0.95;;;;;;;4.43;100.00;96516.84;1013862;29;20024;-68
2022/12/27 00:18:37;;;;;;;1.02;0.60;;;;;;;4.47;100.00;96515.44;1013892;29;20577;-69
2022/12/27 00:19:08;;;;;;;1.38;0.85;;;;;;;4.46;100.00;96517.22;1013809;29;20034;-69
2022/12/27 00:19:38;;;;;;;1.42;0.70;;;;;;;4.43;100.00;96520.25;1014042;29;20032;-68
2022/12/27 00:20:09;;;;;;;1.48;0.75;;;;;;;4.39;100.00;96521.66;1014382;29;20028;-70
2022/12/27 00:20:40;;;;;;;3.38;0.63;;;;;;;4.43;100.00;96520.25;1021560;28;20117;-70
2022/12/27 00:21:11;;;;;;;1.13;0.90;;;;;;;4.44;100.00;96521.03;1025877;28;20497;-70
2022/12/27 00:21:41;;;;;;;1.42;0.70;;;;;;;4.37;100.00;96509.88;1018361;29;20079;-69
2022/12/27 00:22:12;;;;;;;1.20;0.63;;;;;;;4.37;100.00;96521.03;1010327;29;20277;-69
2022/12/27 00:22:42;;;;;;;1.55;0.60;;;;;;;4.39;100.00;96520.84;1013600;29;20032;-69
2022/12/27 00:23:13;;;;;;;2.63;0.90;;;;;;;4.41;100.00;96518.84;1014111;29;20020;-69
2022/12/27 00:23:45;;;;;;;1.70;0.70;;;;;;;4.36;100.00;96522.06;1014923;29;20598;-70
2022/12/27 00:24:16;;;;;;;0.90;0.70;;;;;;;4.38;100.00;96527.84;1015570;29;20059;-69
2022/12/27 00:24:46;;;;;;;1.17;0.63;;;;;;;4.41;100.00;96522.22;1006965;29;20277;-70
2022/12/27 00:25:17;;;;;;;1.48;0.50;;;;;;;4.39;100.00;96519.06;1012002;29;20068;-70
2022/12/27 00:25:47;;;;;;;3.28;0.82;;;;;;;4.41;100.00;96526.63;1007287;29;20123;-70
2022/12/27 00:26:22;;;;;;;1.52;0.73;;;;;;;4.38;100.00;96524.44;1010364;29;20033;-70
2022/12/27 00:26:53;;;;;;;2.75;0.65;;;;;;;4.37;100.00;96531.44;1010342;29;20111;-69
2022/12/27 00:27:23;;;;;;;4.03;0.80;;;;;;;4.39;100.00;96520.84;1013309;29;20280;-70
2022/12/27 00:27:54;;;;;;;0.68;0.68;;;;;;;4.39;100.00;96520.84;1017828;29;20028;-69
2022/12/27 00:28:24;;;;;;;1.52;0.70;;;;;;;4.37;100.00;96521.03;1018175;29;20042;-69
2022/12/27 00:28:55;;;;;;;1.10;0.80;;;;;;;4.30;100.00;96525.47;1014987;29;20019;-69
2022/12/27 00:29:25;;;;;;;1.63;0.75;;;;;;;4.30;100.00;96524.66;1015554;29;20040;-69
2022/12/27 00:29:56;;;;;;;0.98;0.70;;;;;;;4.36;100.00;96519.47;1014203;29;20415;-69
2022/12/27 00:30:26;;;;;;;2.40;1.10;;;;;;;4.30;100.00;96515.06;1014178;29;20029;-69
2022/12/27 00:30:57;;;;;;;2.03;0.55;;;;;;;4.33;100.00;96519.88;1010300;29;20025;-69
2022/12/27 00:31:29;;;;;;;1.55;0.60;;;;;;;4.30;100.00;96522.88;1010104;29;20016;-67
2022/12/27 00:31:59;;;;;;;3.53;1.00;;;;;;;4.37;100.00;96522.84;1014019;29;20513;-69
2022/12/27 00:32:30;;;;;;;1.77;0.60;;;;;;;4.34;100.00;96529.25;1017239;29;20283;-69
2022/12/27 00:33:00;;;;;;;1.40;0.90;;;;;;;4.36;100.00;96529.84;1025580;28;20022;-68
2022/12/27 00:33:32;;;;;;;0.60;0.50;;;;;;;4.36;100.00;96532.44;1018226;29;20027;-68
2022/12/27 00:34:03;;;;;;;1.20;0.60;;;;;;;4.36;100.00;96535.06;1014351;29;20062;-69
2022/12/27 00:34:34;;;;;;;2.58;0.60;;;;;;;4.35;100.00;96538.63;1011870;29;20283;-68
2022/12/27 00:35:05;;;;;;;1.35;0.82;;;;;;;4.36;100.00;96534.22;1011273;29;20284;-69
2022/12/27 00:35:37;;;;;;;0.88;0.75;;;;;;;4.35;100.00;96537.84;1013926;29;20526;-69
2022/12/27 00:36:11;;;;;;;2.22;0.80;;;;;;;4.37;100.00;96539.22;1014479;29;20020;-70
2022/12/27 00:36:41;;;;;;;0.55;0.50;;;;;;;4.35;100.00;96543.81;1014348;29;20268;-69
2022/12/27 00:37:12;;;;;;;0.85;0.52;;;;;;;4.35;100.00;96543.81;1010923;29;20824;-68
2022/12/27 00:37:42;;;;;;;1.92;0.80;;;;;;;4.33;100.00;96535.44;1013438;29;20787;-69
2022/12/27 00:38:13;;;;;;;3.03;0.70;;;;;;;4.33;100.00;96540.66;1018075;29;20064;-69
2022/12/27 00:38:43;;;;;;;3.63;0.80;;;;;;;4.30;100.00;96538.44;1022202;29;20090;-69
2022/12/27 00:39:14;;;;;;;2.30;0.55;;;;;;;4.33;100.00;96534.66;1018250;29;20047;-69
2022/12/27 00:39:44;;;;;;;1.45;0.70;;;;;;;4.34;100.00;96542.22;1014327;29;20039;-69
2022/12/27 00:40:15;;;;;;;2.95;1.00;;;;;;;4.29;100.00;96534.25;1017996;29;20197;-68
2022/12/27 00:40:45;;;;;;;1.38;0.80;;;;;;;4.30;100.00;96533.25;1018601;29;20063;-68
2022/12/27 00:41:16;;;;;;;1.77;0.70;;;;;;;4.29;100.00;96538.63;1009972;29;20899;-69
2022/12/27 00:41:46;;;;;;;1.63;0.70;;;;;;;4.36;100.00;96550.63;1006555;29;20029;-67
2022/12/27 00:42:17;;;;;;;0.77;0.50;;;;;;;4.28;100.00;96532.66;1014115;29;20043;-68
2022/12/27 00:42:47;;;;;;;1.73;0.60;;;;;;;4.33;100.00;96545.06;1014386;29;20095;-68
2022/12/27 00:43:18;;;;;;;0.80;0.68;;;;;;;4.28;100.00;96534.44;1018825;28;20027;-70
2022/12/27 00:43:48;;;;;;;0.82;0.52;;;;;;;4.31;100.00;96542.63;1014390;29;20032;-68
2022/12/27 00:44:19;;;;;;;3.17;0.98;;;;;;;4.32;100.00;96543.44;1014289;29;20063;-68
2022/12/27 00:44:49;;;;;;;1.83;0.73;;;;;;;4.33;100.00;96545.84;1014585;29;20489;-69
2022/12/27 00:45:20;;;;;;;0.60;0.40;;;;;;;4.35;100.00;96551.63;1010076;29;20033;-69
2022/12/27 00:45:50;;;;;;;2.13;0.80;;;;;;;4.35;100.00;96549.03;1013851;29;20107;-69
2022/12/27 00:46:21;;;;;;;1.63;0.82;;;;;;;4.33;100.00;96543.25;1010291;29;20033;-68
2022/12/27 00:46:51;;;;;;;1.20;0.50;;;;;;;4.24;100.00;96527.06;1014152;29;20478;-68
2022/12/27 00:47:22;;;;;;;1.65;0.70;;;;;;;4.33;100.00;96545.84;1018504;29;20031;-69
2022/12/27 00:47:52;;;;;;;2.92;0.70;;;;;;;4.33;100.00;96545.06;1014462;29;20426;-69
2022/12/27 00:48:23;;;;;;;1.45;0.80;;;;;;;4.26;100.00;96532.06;1018069;29;20023;-69
2022/12/27 00:48:54;;;;;;;1.95;1.15;;;;;;;4.31;100.00;96542.63;1022461;29;20051;-68
2022/12/27 00:49:24;;;;;;;1.92;0.75;;;;;;;4.31;100.00;96550.44;1014206;29;20079;-68
2022/12/27 00:49:55;;;;;;;2.75;0.70;;;;;;;4.31;100.00;96545.25;1014413;29;20775;-68
2022/12/27 00:50:25;;;;;;;1.40;0.70;;;;;;;4.36;100.00;96545.44;1014337;29;20135;-68
2022/12/27 00:51:00;;;;;;;0.75;0.55;;;;;;;4.38;100.00;96548.63;1014429;29;20122;-69
2022/12/27 00:51:31;;;;;;;1.35;0.60;;;;;;;4.41;100.00;96556.00;1022116;29;20035;-69
2022/12/27 00:52:01;;;;;;;1.40;0.55;;;;;;;4.40;100.00;96557.03;1018004;29;20284;-68
2022/12/27 00:52:31;;;;;;;0.88;0.60;;;;;;;4.37;100.00;96554.81;1018130;29;20038;-68
2022/12/27 00:53:02;;;;;;;2.63;0.68;;;;;;;4.36;100.00;96555.84;1014658;29;20035;-68
2022/12/27 00:53:33;;;;;;;0.98;0.50;;;;;;;4.36;100.00;96550.63;1010218;29;20033;-70
2022/12/27 00:54:03;;;;;;;2.25;0.80;;;;;;;4.37;100.00;96556.63;1022212;29;20127;-69
2022/12/27 00:54:34;;;;;;;1.00;0.77;;;;;;;4.33;100.00;96545.84;1022216;29;20901;-69
2022/12/27 00:55:04;;;;;;;3.22;0.60;;;;;;;4.35;100.00;96554.22;1022194;29;20118;-69
2022/12/27 00:55:35;;;;;;;1.88;0.50;;;;;;;4.38;100.00;96553.81;1021642;29;20074;-69
2022/12/27 00:56:10;;;;;;;1.85;0.70;;;;;;;4.31;100.00;96545.25;1017987;29;20028;-67
2022/12/27 00:56:40;;;;;;;3.08;0.98;;;;;;;4.37;100.00;96554.81;1010563;29;20059;-70
2022/12/27 00:57:11;;;;;;;4.07;0.70;;;;;;;4.39;100.00;96558.03;1010851;29;20276;-69
2022/12/27 00:57:41;;;;;;;1.85;0.80;;;;;;;4.40;100.00;96562.22;1014822;29;20032;-68
2022/12/27 00:58:12;;;;;;;4.57;0.80;;;;;;;4.41;100.00;96556.00;1019092;29;20031;-68
2022/12/27 00:58:42;;;;;;;1.35;0.60;;;;;;;4.34;100.00;96555.22;1022150;28;20043;-69
2022/12/27 00:59:13;;;;;;;2.58;0.75;;;;;;;4.38;100.00;96564.22;1014262;29;20107;-70
2022/12/27 00:59:43;;;;;;;2.45;0.90;;;;;;;4.40;100.00;96562.22;1014632;29;20041;-69
2022/12/27 01:00:14;;;;;;;1.77;0.50;;;;;;;4.40;100.00;96556.22;1014039;29;20177;-68
2022/12/27 01:00:45;;;;;;;3.15;0.77;;;;;;;4.38;100.00;96553.81;1014233;29;20016;-69
2022/12/27 01:01:17;;;;;;;0.60;0.57;;;;;;;4.42;100.00;96559.41;1014323;29;20028;-68
2022/12/27 01:01:47;;;;;;;2.22;0.70;;;;;;;4.42;100.00;96564.59;1010283;29;20012;-67
2022/12/27 01:02:18;;;;;;;1.55;0.80;;;;;;;4.38;100.00;96564.22;1010541;29;20276;-67
2022/12/27 01:02:48;;;;;;;2.53;0.70;;;;;;;4.37;100.00;96567.81;1014784;29;20031;-69
2022/12/27 01:03:19;;;;;;;0.77;0.73;;;;;;;4.32;100.00;96554.63;1018219;29;20539;-69
2022/12/27 01:03:50;;;;;;;1.58;0.52;;;;;;;4.34;100.00;96563.03;1018232;29;20060;-69
2022/12/27 01:04:20;;;;;;;2.47;0.90;;;;;;;4.38;100.00;96569.41;1010124;29;20021;-68
2022/12/27 01:04:52;;;;;;;0.98;0.70;;;;;;;4.37;100.00;96565.22;1010414;29;20086;-70
2022/12/27 01:05:23;;;;;;;2.60;1.02;;;;;;;4.37;100.00;96562.63;1010540;29;20028;-69
2022/12/27 01:05:53;;;;;;;0.60;0.50;;;;;;;4.36;100.00;96561.03;1013941;29;20273;-69
2022/12/27 01:06:27;;;;;;;2.05;0.77;;;;;;;4.36;100.00;96566.22;1014883;29;20100;-68
2022/12/27 01:06:58;;;;;;;0.90;0.60;;;;;;;4.38;100.00;96559.00;1015067;29;20024;-69
2022/12/27 01:07:28;;;;;;;2.35;0.80;;;;;;;4.37;100.00;96573.00;1015466;29;20276;-68
2022/12/27 01:07:59;;;;;;;4.20;1.00;;;;;;;4.38;100.00;96561.59;1015875;29;20593;-70
2022/12/27 01:08:29;;;;;;;1.77;0.85;;;;;;;4.36;100.00;96563.63;1018714;29;20028;-68
2022/12/27 01:09:00;;;;;;;3.60;0.85;;;;;;;4.39;100.00;96568.41;1015230;29;20509;-69
2022/12/27 01:09:30;;;;;;;2.35;0.85;;;;;;;4.40;100.00;96570.00;1011069;29;20084;-68
2022/12/27 01:10:01;;;;;;;1.10;0.70;;;;;;;4.33;100.00;96551.03;1011073;29;20029;-70
2022/12/27 01:10:31;;;;;;;2.67;0.80;;;;;;;4.39;100.00;96563.22;1010878;29;20372;-69
2022/12/27 01:11:02;;;;;;;1.17;0.77;;;;;;;4.39;100.00;96565.00;1011224;29;20031;-69
2022/12/27 01:11:33;;;;;;;1.45;0.82;;;;;;;4.37;100.00;96572.22;1011006;29;20562;-68
2022/12/27 01:12:03;;;;;;;2.83;0.60;;;;;;;4.34;100.00;96568.22;1007594;29;20467;-69
2022/12/27 01:12:34;;;;;;;0.95;0.65;;;;;;;4.29;100.00;96567.22;1010762;29;20028;-68
2022/12/27 01:13:05;;;;;;;1.20;0.63;;;;;;;4.36;100.00;96570.59;1015609;29;20558;-69
2022/12/27 01:13:35;;;;;;;1.10;0.75;;;;;;;4.35;100.00;96575.00;1018979;29;20059;-69
2022/12/27 01:14:06;;;;;;;2.15;0.68;;;;;;;4.29;100.00;96555.03;1011094;29;20032;-69
2022/12/27 01:14:37;;;;;;;2.35;1.00;;;;;;;4.36;100.00;96574.03;1015234;29;20023;-70
2022/12/27 01:15:07;;;;;;;1.15;0.52;;;;;;;4.35;100.00;96574.22;1011098;29;20472;-70
2022/12/27 01:15:40;;;;;;;2.88;0.73;;;;;;;4.32;100.00;96574.59;1014129;29;20016;-69
2022/12/27 01:16:16;;;;;;;1.10;0.82;;;;;;;4.36;100.00;96581.81;1015658;29;20024;-70
2022/12/27 01:16:46;;;;;;;1.17;0.80;;;;;;;4.33;100.00;96581.41;1017641;29;20298;-70
2022/12/27 01:17:17;;;;;;;2.55;0.60;;;;;;;4.33;100.00;96584.03;1020968;28;20306;-70
2022/12/27 01:17:47;;;;;;;1.13;0.70;;;;;;;4.30;100.00;96587.81;1014830;29;20034;-69
2022/12/27 01:18:17;;;;;;;0.85;0.60;;;;;;;4.27;100.00;96585.63;1019053;29;20032;-69
2022/12/27 01:18:48;;;;;;;1.42;0.98;;;;;;;4.28;100.00;96589.00;1019089;29;20079;-69
2022/12/27 01:19:18;;;;;;;1.85;0.80;;;;;;;4.26;100.00;96584.03;1018845;29;20031;-69
2022/12/27 01:19:49;;;;;;;0.43;0.43;;;;;;;4.27;100.00;96580.41;1018679;29;20597;-68
2022/12/27 01:20:19;;;;;;;3.08;1.00;;;;;;;4.27;100.00;96593.41;1015474;29;20040;-69
2022/12/27 01:20:50;;;;;;;1.50;0.77;;;;;;;4.20;100.00;96584.81;1014665;29;20071;-68
2022/12/27 01:21:21;;;;;;;1.17;0.98;;;;;;;4.26;100.00;96591.81;1015620;29;20024;-69
2022/12/27 01:21:52;;;;;;;1.88;1.05;;;;;;;4.28;100.00;96595.00;1018944;29;20075;-68
2022/12/27 01:22:22;;;;;;;4.30;1.00;;;;;;;4.28;100.00;96589.81;1018593;29;20414;-68
2022/12/27 01:22:53;;;;;;;4.00;1.05;;;;;;;4.28;100.00;96594.19;1015333;29;20067;-69
2022/12/27 01:23:25;;;;;;;2.30;1.20;;;;;;;4.28;100.00;96594.19;1018242;29;20094;-67
2022/12/27 01:23:55;;;;;;;2.25;1.02;;;;;;;4.26;100.00;96591.81;1021972;29;20023;-69
2022/12/27 01:24:26;;;;;;;1.85;0.88;;;;;;;4.28;100.00;96596.78;1023129;28;21326;-69
2022/12/27 01:24:56;;;;;;;1.52;0.80;;;;;;;4.28;100.00;96595.00;1022785;29;20023;-68
2022/12/27 01:25:27;;;;;;;1.15;0.90;;;;;;;4.29;100.00;96599.19;1018770;29;20313;-67
2022/12/27 01:25:59;;;;;;;3.05;1.13;;;;;;;4.24;100.00;96594.59;1018216;29;20062;-69
2022/12/27 01:26:29;;;;;;;1.45;0.73;;;;;;;4.27;100.00;96598.59;1018870;29;20035;-70
2022/12/27 01:27:00;;;;;;;1.08;0.65;;;;;;;4.26;100.00;96602.22;1019403;28;20278;-68
2022/12/27 01:27:30;;;;;;;0.85;0.80;;;;;;;4.27;100.00;96598.59;1022565;28;20031;-68
2022/12/27 01:28:01;;;;;;;1.30;0.70;;;;;;;4.25;100.00;96588.41;1018874;29;20067;-68
2022/12/27 01:28:31;;;;;;;3.42;0.93;;;;;;;4.29;100.00;96601.78;1019200;29;20426;-69
2022/12/27 01:29:02;;;;;;;3.28;1.10;;;;;;;4.29;100.00;96595.78;1014901;29;20028;-70
2022/12/27 01:29:35;;;;;;;1.60;0.90;;;;;;;4.30;100.00;96603.41;1014407;29;20107;-69
2022/12/27 01:30:06;;;;;;;2.05;0.93;;;;;;;4.23;100.00;96600.00;1011639;29;20392;-69
2022/12/27 01:30:36;;;;;;;2.55;1.08;;;;;;;4.24;100.00;96599.00;1015026;29;20311;-68
2022/12/27 01:31:11;;;;;;;2.33;1.00;;;;;;;4.18;100.00;96599.78;1015322;29;20276;-68
2022/12/27 01:31:42;;;;;;;1.55;1.10;;;;;;;4.23;100.00;96608.59;1014950;29;20443;-67
2022/12/27 01:32:12;;;;;;;1.92;0.98;;;;;;;4.23;100.00;96613.00;1015633;29;20264;-68
2022/12/27 01:32:43;;;;;;;4.00;1.13;;;;;;;4.22;100.00;96611.38;1014681;29;20943;-68
2022/12/27 01:33:13;;;;;;;2.88;1.13;;;;;;;4.14;100.00;96590.81;1013911;29;20064;-68
2022/12/27 01:33:44;;;;;;;4.53;1.00;;;;;;;4.23;100.00;96613.00;1018047;29;20517;-70
2022/12/27 01:34:15;;;;;;;2.58;0.70;;;;;;;4.20;100.00;96608.19;1015096;29;20028;-69
2022/12/27 01:34:45;;;;;;;6.05;1.17;;;;;;;4.18;100.00;96617.97;1018806;29;20024;-69
2022/12/27 01:35:16;;;;;;;1.15;0.90;;;;;;;4.16;100.00;96628.59;1015271;29;20131;-69
2022/12/27 01:35:46;;;;;;;2.80;0.90;;;;;;;4.18;100.00;96623.19;1014255;29;20442;-69
2022/12/27 01:36:19;;;;;;;2.25;0.93;;;;;;;4.20;100.00;96628.97;1014835;29;20039;-69
2022/12/27 01:36:49;;;;;;;2.72;1.00;;;;;;;4.19;100.00;96622.16;1015314;29;20110;-67
2022/12/27 01:37:20;;;;;;;5.57;0.88;;;;;;;4.16;100.00;96622.59;1014809;29;20268;-68
2022/12/27 01:37:51;;;;;;;1.13;0.80;;;;;;;4.20;100.00;96631.56;1022080;29;20029;-70
2022/12/27 01:38:21;;;;;;;2.95;0.90;;;;;;;4.16;100.00;96620.78;1018659;29;20098;-69
2022/12/27 01:38:52;;;;;;;2.10;0.77;;;;;;;4.20;100.00;96623.78;1018712;29;20066;-67
2022/12/27 01:39:22;;;;;;;3.58;0.93;;;;;;;4.23;100.00;96631.19;1014872;29;20052;-69
2022/12/27 01:39:53;;;;;;;4.43;1.13;;;;;;;4.23;100.00;96628.59;1011163;29;20647;-69
2022/12/27 01:40:24;;;;;;;4.72;0.98;;;;;;;4.19;100.00;96632.56;1018784;29;20028;-69
2022/12/27 01:40:54;;;;;;;2.03;1.30;;;;;;;4.21;100.00;96635.75;1014729;29;20608;-69
2022/12/27 01:43:18;;;;;;;4.68;1.20;;;;;;;4.23;100.00;96642.38;1022901;29;20780;-70
2022/12/27 01:43:48;;;;;;;1.17;0.90;;;;;;;4.24;100.00;96635.38;1019955;29;20267;-69
2022/12/27 01:44:48;;;;;;;3.08;1.15;;;;;;;4.28;100.00;96636.56;1022671;29;20345;-68
2022/12/27 01:45:25;;;;;;;1.20;0.70;;;;;;;4.23;100.00;96631.19;1022588;29;20114;-70
2022/12/27 01:45:55;;;;;;;3.33;1.15;;;;;;;4.19;100.00;96623.00;1018065;29;20391;-68
2022/12/27 01:46:26;;;;;;;1.83;1.08;;;;;;;4.29;100.00;96648.53;1015019;29;20261;-70
2022/12/27 01:46:57;;;;;;;3.90;0.98;;;;;;;4.27;100.00;96632.38;1010910;29;20116;-69
2022/12/27 01:47:35;;;;;;;3.53;0.70;;;;;;;4.30;100.00;96639.78;1011224;29;20110;-68
2022/12/27 01:48:18;;;;;;;1.02;0.93;;;;;;;4.30;100.00;96639.78;1007105;29;20033;-68
2022/12/27 01:48:48;;;;;;;1.15;0.90;;;;;;;4.29;100.00;96637.34;1011026;29;20263;-69
2022/12/27 01:49:19;;;;;;;1.38;1.02;;;;;;;4.34;100.00;96640.97;1017586;29;20260;-68
2022/12/27 01:50:04;;;;;;;2.35;0.85;;;;;;;4.27;100.00;96634.97;1016141;29;20024;-70
2022/12/27 01:50:37;;;;;;;2.17;0.85;;;;;;;4.32;100.00;96645.53;1016709;29;20036;-67
2022/12/27 01:51:07;;;;;;;1.85;1.17;;;;;;;4.30;100.00;96650.16;1018767;29;20268;-68
2022/12/27 01:51:38;;;;;;;4.32;1.10;;;;;;;4.24;100.00;96646.56;1019014;29;20256;-69
2022/12/27 01:52:08;;;;;;;1.65;0.80;;;;;;;4.29;100.00;96658.94;1008280;29;20032;-68
2022/12/27 01:52:45;;;;;;;4.10;1.13;;;;;;;4.26;100.00;96648.97;1011100;29;20132;-71
2022/12/27 01:53:29;;;;;;;1.58;0.82;;;;;;;4.26;100.00;96646.38;1011626;29;20065;-69
2022/12/27 01:54:00;;;;;;;1.55;0.82;;;;;;;4.26;100.00;96656.75;1013662;29;20264;-69
2022/12/27 01:54:30;;;;;;;1.45;1.35;;;;;;;4.18;100.00;96636.16;1016039;29;20268;-69
2022/12/27 01:55:18;;;;;;;2.42;1.48;;;;;;;4.23;100.00;96644.16;1010921;29;20037;-69
2022/12/27 01:55:54;;;;;;;8.23;0.93;;;;;;;4.21;100.00;96646.16;1012651;29;20016;-69
2022/12/27 01:56:26;;;;;;;2.63;0.95;;;;;;;4.20;100.00;96642.75;1013799;29;20270;-68
2022/12/27 01:56:57;;;;;;;1.23;0.70;;;;;;;4.19;100.00;96643.78;1011300;29;20264;-69
2022/12/27 01:57:27;;;;;;;1.10;0.77;;;;;;;4.19;100.00;96635.16;1014887;29;20268;-69
2022/12/27 01:58:09;;;;;;;1.15;0.90;;;;;;;4.21;100.00;96646.16;1018376;29;20032;-68
2022/12/27 01:59:00;;;;;;;1.98;0.85;;;;;;;4.20;100.00;96649.75;1011943;29;20531;-69
2022/12/27 01:59:30;;;;;;;1.42;0.98;;;;;;;4.19;100.00;96648.13;1015251;29;20280;-68
2022/12/27 02:00:01;;;;;;;1.83;0.95;;;;;;;4.18;100.00;96652.53;1014658;29;20284;-69
2022/12/27 02:00:31;;;;;;;2.63;0.93;;;;;;;4.18;100.00;96651.75;1014539;29;20092;-70
2022/12/27 02:01:06;;;;;;;2.83;0.85;;;;;;;4.12;100.00;96642.94;1015102;29;20108;-68
2022/12/27 02:01:38;;;;;;;4.18;0.88;;;;;;;4.09;100.00;96639.94;1014748;29;20711;-68
2022/12/27 02:02:09;;;;;;;1.60;1.00;;;;;;;4.15;100.00;96646.94;1018679;29;20259;-68
2022/12/27 02:02:39;;;;;;;2.10;0.90;;;;;;;4.13;100.00;96654.16;1018913;29;20279;-68
2022/12/27 02:03:10;;;;;;;3.55;0.85;;;;;;;4.12;100.00;96648.13;1015067;29;20711;-69
2022/12/27 02:03:43;;;;;;;0.70;0.68;;;;;;;4.07;100.00;96636.75;1018808;29;20027;-70
2022/12/27 02:04:15;;;;;;;2.80;1.05;;;;;;;4.04;100.00;96629.38;1018730;29;20028;-68
2022/12/27 02:04:46;;;;;;;2.13;0.85;;;;;;;4.10;100.00;96649.34;1014613;29;20814;-69
2022/12/27 02:05:16;;;;;;;1.15;0.95;;;;;;;4.07;100.00;96650.53;1015171;29;20279;-68
2022/12/27 02:05:47;;;;;;;1.45;1.00;;;;;;;4.07;100.00;96654.94;1017865;29;20136;-70
2022/12/27 02:06:18;;;;;;;0.90;0.77;;;;;;;4.02;100.00;96650.31;1015108;29;20031;-69
2022/12/27 02:06:48;;;;;;;1.98;1.08;;;;;;;4.02;100.00;96655.53;1018536;29;20028;-68
2022/12/27 02:07:21;;;;;;;2.20;0.95;;;;;;;3.99;100.00;96654.13;1017048;29;20050;-68
2022/12/27 02:07:59;;;;;;;2.10;0.80;;;;;;;4.01;100.00;96657.31;1014817;29;20020;-69
2022/12/27 02:08:37;;;;;;;1.45;0.98;;;;;;;4.01;100.00;96666.91;1006973;29;20314;-69
2022/12/27 02:09:29;;;;;;;2.78;1.20;;;;;;;3.99;100.00;96659.34;1010128;29;20276;-68
2022/12/27 02:09:59;;;;;;;2.05;0.80;;;;;;;3.97;100.00;96665.72;1014720;29;20274;-69
2022/12/27 02:10:29;;;;;;;2.67;0.82;;;;;;;3.96;100.00;96667.53;1014670;29;20283;-69
2022/12/27 02:11:00;;;;;;;2.15;0.75;;;;;;;3.96;100.00;96669.31;1010761;29;20024;-69
2022/12/27 02:11:50;;;;;;;2.03;0.88;;;;;;;3.96;100.00;96674.50;1018594;29;20293;-68
2022/12/27 02:12:20;;;;;;;1.52;0.98;;;;;;;3.96;100.00;96675.31;1018369;29;20034;-69
2022/12/27 02:12:51;;;;;;;2.90;1.23;;;;;;;3.89;100.00;96668.47;1020888;29;20278;-69
2022/12/27 02:13:21;;;;;;;3.40;1.05;;;;;;;3.90;100.00;96675.28;1018933;29;20111;-67
2022/12/27 02:13:52;;;;;;;1.15;0.80;;;;;;;3.92;100.00;96678.47;1022352;28;20059;-69
2022/12/27 02:14:41;;;;;;;1.05;0.93;;;;;;;3.90;100.00;96681.28;1014726;29;20689;-68
2022/12/27 02:15:11;;;;;;;2.00;1.63;;;;;;;3.87;100.00;96668.69;1010578;29;20067;-69
2022/12/27 02:15:42;;;;;;;1.10;0.88;;;;;;;3.84;100.00;96661.28;1017935;29;20275;-68
2022/12/27 02:16:16;;;;;;;1.20;1.00;;;;;;;3.91;100.00;96677.69;1018631;29;20566;-69
2022/12/27 02:16:47;;;;;;;2.38;1.10;;;;;;;3.89;100.00;96679.69;1018571;29;20102;-68
2022/12/27 02:17:27;;;;;;;2.65;0.82;;;;;;;3.91;100.00;96679.47;1013987;29;20972;-69
2022/12/27 02:17:57;;;;;;;1.45;0.90;;;;;;;3.86;100.00;96685.28;1020469;29;20055;-69
2022/12/27 02:18:28;;;;;;;1.70;0.77;;;;;;;3.85;100.00;96677.66;1014516;29;20040;-68
2022/12/27 02:18:58;;;;;;;1.50;0.80;;;;;;;3.78;100.00;96672.47;1014741;29;20491;-68
2022/12/27 02:19:32;;;;;;;3.38;0.98;;;;;;;3.82;100.00;96676.25;1022392;29;20031;-68
2022/12/27 02:20:16;;;;;;;2.05;0.70;;;;;;;3.83;100.00;96682.28;1018799;29;20051;-69
2022/12/27 02:21:14;;;;;;;1.52;0.60;;;;;;;3.82;100.00;96685.84;1016686;29;20829;-68
2022/12/27 02:22:02;;;;;;;2.33;0.80;;;;;;;3.78;100.00;96682.84;1020524;29;20248;-68
2022/12/27 02:24:09;;;;;;;1.40;0.75;;;;;;;3.75;100.00;96688.41;1023029;29;20767;-68
2022/12/27 02:24:52;;;;;;;0.88;0.65;;;;;;;3.69;100.00;96678.81;1019247;29;20270;-69
2022/12/27 02:25:35;;;;;;;4.75;0.80;;;;;;;3.69;100.00;96684.00;1026130;28;20393;-69
2022/12/27 02:26:20;;;;;;;2.35;1.08;;;;;;;3.69;100.00;96686.59;1026844;28;20337;-67
2022/12/27 02:26:55;;;;;;;1.35;0.90;;;;;;;3.67;100.00;96691.19;1023644;29;20291;-68
2022/12/27 02:27:56;;;;;;;2.05;0.93;;;;;;;3.67;100.00;96686.00;1019134;29;20327;-68
2022/12/27 02:28:47;;;;;;;2.50;0.80;;;;;;;3.63;100.00;96690.78;1020095;29;20343;-66
2022/12/27 02:29:37;;;;;;;2.67;0.70;;;;;;;3.63;100.00;96685.59;1026004;28;20027;-69
2022/12/27 02:30:08;;;;;;;0.85;0.60;;;;;;;3.61;100.00;96681.59;1019396;29;20317;-68
2022/12/27 02:30:39;;;;;;;1.10;0.65;;;;;;;3.58;100.00;96679.38;1014212;29;20060;-68
2022/12/27 02:31:18;;;;;;;2.47;0.70;;;;;;;3.60;100.00;96691.19;1015496;29;20307;-68
2022/12/27 02:31:54;;;;;;;1.25;0.80;;;;;;;3.60;100.00;96690.38;1015406;29;20534;-68
2022/12/27 02:32:34;;;;;;;2.55;1.00;;;;;;;3.60;100.00;96688.59;1019844;29;20290;-68
2022/12/27 02:33:15;;;;;;;1.98;0.77;;;;;;;3.54;100.00;96678.97;1027228;28;20361;-68
2022/12/27 02:33:46;;;;;;;1.67;0.82;;;;;;;3.54;100.00;96686.75;1023569;29;20348;-68
2022/12/27 02:34:47;;;;;;;1.45;0.63;;;;;;;3.58;100.00;96692.38;1019425;29;20745;-68
2022/12/27 02:35:24;;;;;;;1.25;1.05;;;;;;;3.59;100.00;96696.56;1016588;29;20336;-69
2022/12/27 02:36:00;;;;;;;3.92;1.30;;;;;;;3.54;100.00;96689.34;1011631;29;20028;-68
2022/12/27 02:36:32;;;;;;;2.35;1.00;;;;;;;3.60;100.00;96692.97;1012322;29;20651;-67
2022/12/27 02:37:05;;;;;;;2.55;1.33;;;;;;;3.61;100.00;96699.75;1015603;29;20328;-68